KTRM/TRM METAR and TAF weather

Enter ICAO airport designator
Station Type Date Time Source
KTRM METAR 2019/10/14 05:52 UTC NOAA

KTRM 140552Z AUTO 34005KT 10SM CLR 19/03 A2976 RMK AO2 SLP079 T01940033 10306 20156 52007


Station Type Date Time Source
KTRM Decoded METAR 2019/10/14 05:52 UTC NOAA

Palm Springs, Jacqueline Cochran Regional Airport, CA, United States (KTRM) 33-37-36N 116-09-34W
Oct 14, 2019 - 01:52 AM EDT / 2019.10.14 0552 UTC
Wind: from the NNW (340 degrees) at 6 MPH (5 KT):0
Visibility: 10 mile(s):0
Sky conditions: clear
Temperature: 66.9 F (19.4 C)
Dew Point: 37.9 F (3.3 C)
Relative Humidity: 34%
Pressure (altimeter): 29.76 in. Hg (1007 hPa)
Pressure tendency: 0.02 inches (0.7 hPa) higher than three hours ago
ob: KTRM 140552Z AUTO 34005KT 10SM CLR 19/03 A2976 RMK AO2 SLP079 T01940033 10306 20156 52007
cycle: 6

Station Type Date Time Source
KTRM TAF 2019/10/14 06:22 UTC NOAA

TAF KTRM 140520Z 1406/1506 VRB05KT P6SM SKC

Example: see airport list